Map

Track Data

SID SEASON NUMBER BASIN SUBBASIN NAME ISO_TIME NATURE LAT LON WMO_WIND WMO_PRES WMO_AGENCY TRACK_TYPE DIST2LAND LANDFALL IFLAG USA_AGENCY USA_ATCF_ID USA_LAT USA_LON USA_RECORD USA_STATUS USA_WIND USA_PRES USA_SSHS USA_R34_NE USA_R34_SE USA_R34_SW USA_R34_NW USA_R50_NE USA_R50_SE USA_R50_SW USA_R50_NW USA_R64_NE USA_R64_SE USA_R64_SW USA_R64_NW USA_POCI USA_ROCI USA_RMW USA_EYE TOKYO_LAT TOKYO_LON TOKYO_GRADE TOKYO_WIND TOKYO_PRES TOKYO_R50_DIR TOKYO_R50_LONG TOKYO_R50_SHORT TOKYO_R30_DIR TOKYO_R30_LONG TOKYO_R30_SHORT TOKYO_LAND CMA_LAT CMA_LON CMA_CAT CMA_WIND CMA_PRES HKO_LAT HKO_LON HKO_CAT HKO_WIND HKO_PRES NEWDELHI_LAT NEWDELHI_LON NEWDELHI_GRADE NEWDELHI_WIND NEWDELHI_PRES NEWDELHI_CI NEWDELHI_DP NEWDELHI_POCI REUNION_LAT REUNION_LON REUNION_TYPE REUNION_WIND REUNION_PRES REUNION_TNUM REUNION_CI REUNION_RMW REUNION_R34_NE REUNION_R34_SE REUNION_R34_SW REUNION_R34_NW REUNION_R50_NE REUNION_R50_SE REUNION_R50_SW REUNION_R50_NW REUNION_R64_NE REUNION_R64_SE REUNION_R64_SW REUNION_R64_NW BOM_LAT BOM_LON BOM_TYPE BOM_WIND BOM_PRES BOM_TNUM BOM_CI BOM_RMW BOM_R34_NE BOM_R34_SE BOM_R34_SW BOM_R34_NW BOM_R50_NE BOM_R50_SE BOM_R50_SW BOM_R50_NW BOM_R64_NE BOM_R64_SE BOM_R64_SW BOM_R64_NW BOM_ROCI BOM_POCI BOM_EYE BOM_POS_METHOD BOM_PRES_METHOD NADI_LAT NADI_LON NADI_CAT NADI_WIND NADI_PRES WELLINGTON_LAT WELLINGTON_LON WELLINGTON_WIND WELLINGTON_PRES DS824_LAT DS824_LON DS824_STAGE DS824_WIND DS824_PRES TD9636_LAT TD9636_LON TD9636_STAGE TD9636_WIND TD9636_PRES TD9635_LAT TD9635_LON TD9635_WIND TD9635_PRES TD9635_ROCI NEUMANN_LAT NEUMANN_LON NEUMANN_CLASS NEUMANN_WIND NEUMANN_PRES MLC_LAT MLC_LON MLC_CLASS MLC_WIND MLC_PRES USA_GUST BOM_GUST BOM_GUST_PER REUNION_GUST REUNION_GUST_PER USA_SEAHGT USA_SEARAD_NE USA_SEARAD_SE USA_SEARAD_SW USA_SEARAD_NW STORM_SPEED STORM_DIR
1929040S14125 1929 11 SI WA NOT_NAMED 1929-02-08 23:00:00 NR -14.0000 125.000 main 70 59 __________O___ -1 -14.0000 125.000 7 8 208
1929040S14125 1929 11 SI WA NOT_NAMED 1929-02-09 00:00:00 NR -14.1101 124.938 main 64 64 __________P___ -1 -14.1101 124.938 7 4 216
1929040S14125 1929 11 SI WA NOT_NAMED 1929-02-09 01:00:00 NR -14.1153 124.907 bom main 64 55 ______O___P___ -1 -13.8000 125.000 -14.2204 124.877 7 4 224
1929040S14125 1929 11 SI WA NOT_NAMED 1929-02-09 03:00:00 NR -14.2606 124.784 main 54 54 ______P___P___ -1 -13.8958 124.850 -14.4431 124.751 7 6 222
1929040S14125 1929 11 SI WA NOT_NAMED 1929-02-09 06:00:00 NR -14.4681 124.584 main 65 65 ______P___P___ -1 -14.0444 124.620 -14.7860 124.556 7 6 224
1929040S14125 1929 11 SI WA NOT_NAMED 1929-02-09 09:00:00 NR -14.6760 124.363 main 70 69 ______P___P___ -1 -14.2058 124.377 -15.1463 124.349 7 7 223
1929040S14125 1929 11 SI WA NOT_NAMED 1929-02-09 11:00:00 NR -14.8621 124.201 main 72 72 ______P___O___ -1 -14.3242 124.203 -15.4000 124.200 7 7 220
1929040S14125 1929 11 SI WA NOT_NAMED 1929-02-09 12:00:00 NR -14.9596 124.117 main 74 69 ______P___P___ -1 -14.3876 124.111 -15.5315 124.122 7 8 220
1929040S14125 1929 11 SI WA NOT_NAMED 1929-02-09 15:00:00 NR -15.2666 123.846 main 72 68 ______P___P___ -1 -14.5977 123.815 -15.9356 123.877 7 8 221
1929040S14125 1929 11 SI WA NOT_NAMED 1929-02-09 18:00:00 NR -15.5879 123.551 main 68 54 ______P___P___ -1 -14.8437 123.480 -16.3321 123.622 7 9 222
1929040S14125 1929 11 SI WA NOT_NAMED 1929-02-09 21:00:00 NR -15.9132 123.232 main 61 44 ______P___P___ -1 -15.1333 123.098 -16.6931 123.366 7 9 224
1929040S14125 1929 11 SI WA NOT_NAMED 1929-02-09 23:00:00 NR -16.1271 123.006 main 44 33 ______P___O___ -1 -15.3542 122.813 -16.9000 123.200 7 9 225
1929040S14125 1929 11 SI WA NOT_NAMED 1929-02-10 00:00:00 NR -16.2307 122.894 main 33 22 ______P___P___ -1 -15.4738 122.660 -16.9875 123.129 7 9 226
1929040S14125 1929 11 SI WA NOT_NAMED 1929-02-10 01:00:00 NR -16.3337 122.780 bom main 24 15 ______O___P___ -1 -15.6000 122.500 -17.0673 123.060 7 9 228
1929040S14125 1929 11 SI WA NOT_NAMED 1929-02-10 03:00:00 NR -16.5369 122.544 main 30 24 ______P___P___ -1 -15.8669 122.165 -17.2070 122.924 7 9 228
1929040S14125 1929 11 SI WA NOT_NAMED 1929-02-10 04:00:00 NR -16.6341 122.428 bom main 33 24 ______O___P___ -1 -16.0000 122.000 -17.2681 122.856 7 8 230
1929040S14125 1929 11 SI WA NOT_NAMED 1929-02-10 06:00:00 NR -16.8097 122.212 main 33 24 ______P___P___ -1 -16.2427 121.708 -17.3766 122.715 7 8 231
1929040S14125 1929 11 SI WA NOT_NAMED 1929-02-10 09:00:00 NR -17.0416 121.909 main 43 38 ______P___P___ -1 -16.5678 121.337 -17.5154 122.481 7 7 232
1929040S14125 1929 11 SI WA NOT_NAMED 1929-02-10 11:00:00 NR -17.1814 121.713 main 54 54 ______P___O___ -1 -16.7628 121.126 -17.6000 122.300 7 7 233
1929040S14125 1929 11 SI WA NOT_NAMED 1929-02-10 12:00:00 NR -17.2535 121.615 main 62 62 ______P___P___ -1 -16.8550 121.030 -17.6520 122.200 7 7 234
1929040S14125 1929 11 SI WA NOT_NAMED 1929-02-10 15:00:00 NR -17.4564 121.320 main 85 85 ______P___P___ -1 -17.1141 120.770 -17.7986 121.869 7 7 236
1929040S14125 1929 11 SI WA NOT_NAMED 1929-02-10 18:00:00 NR -17.6418 121.017 main 116 116 ______P___P___ -1 -17.3550 120.538 -17.9285 121.497 7 7 239
1929040S14125 1929 11 SI WA NOT_NAMED 1929-02-10 21:00:00 NR -17.8131 120.702 main 138 138 ______P___P___ -1 -17.5873 120.315 -18.0388 121.089 7 7 241
1929040S14125 1929 11 SI WA NOT_NAMED 1929-02-10 23:00:00 NR -17.9210 120.481 main 148 148 ______P___O___ -1 -17.7420 120.163 -18.1000 120.800 7 7 243
1929040S14125 1929 11 SI WA NOT_NAMED 1929-02-11 00:00:00 NR -17.9705 120.371 main 152 152 ______P___P___ -1 -17.8204 120.083 -18.1205 120.659 7 7 245
1929040S14125 1929 11 SI WA NOT_NAMED 1929-02-11 01:00:00 NR -18.0186 120.257 bom main 162 162 ______O___P___ -1 -17.9000 120.000 -18.1372 120.514 7 7 247
1929040S14125 1929 11 SI WA NOT_NAMED 1929-02-11 03:00:00 NR -18.0960 120.056 main 177 177 ______P___P___ -1 -18.0291 119.898 -18.1629 120.214 7 6 249
1929040S14125 1929 11 SI WA NOT_NAMED 1929-02-11 06:00:00 NR -18.2031 119.752 main 192 189 ______P___P___ -1 -18.2100 119.764 -18.1963 119.741 7 6 249
1929040S14125 1929 11 SI WA NOT_NAMED 1929-02-11 09:00:00 NR -18.3187 119.432 main 194 186 ______P___P___ -1 -18.3916 119.621 -18.2457 119.244 7 7 248
1929040S14125 1929 11 SI WA NOT_NAMED 1929-02-11 11:00:00 NR -18.4110 119.202 main 189 178 ______P___O___ -1 -18.5219 119.503 -18.3000 118.900 7 7 247
1929040S14125 1929 11 SI WA NOT_NAMED 1929-02-11 12:00:00 NR -18.4606 119.076 main 178 169 ______P___P___ -1 -18.5918 119.434 -18.3294 118.718 7 8 247
1929040S14125 1929 11 SI WA NOT_NAMED 1929-02-11 15:00:00 NR -18.6341 118.658 main 172 162 ______P___P___ -1 -18.8283 119.165 -18.4400 118.152 7 9 245
1929040S14125 1929 11 SI WA NOT_NAMED 1929-02-11 18:00:00 NR -18.8574 118.179 main 164 148 ______P___P___ -1 -19.1186 118.778 -18.5962 117.580 7 11 242
1929040S14125 1929 11 SI WA NOT_NAMED 1929-02-11 21:00:00 NR -19.1467 117.634 main 154 138 ______P___P___ -1 -19.4799 118.235 -18.8134 117.034 7 12 239
1929040S14125 1929 11 SI WA NOT_NAMED 1929-02-11 23:00:00 NR -19.3841 117.233 main 140 126 ______P___O___ -1 -19.7683 117.767 -19.0000 116.700 7 14 237
1929040S14125 1929 11 SI WA NOT_NAMED 1929-02-12 00:00:00 NR -19.5151 117.023 main 124 111 ______P___P___ -1 -19.9284 117.496 -19.1017 116.549 7 15 236
1929040S14125 1929 11 SI WA NOT_NAMED 1929-02-12 01:00:00 NR -19.6563 116.802 bom main 100 84 ______O___P___ -1 -20.1000 117.200 -19.2126 116.405 7 16 241
1929040S14125 1929 11 SI WA NOT_NAMED 1929-02-12 03:00:00 NR -19.9000 116.294 main 88 83 ______P___P___ -1 -20.3404 116.454 -19.4597 116.133 7 17 237
1929040S14125 1929 11 SI WA NOT_NAMED 1929-02-12 06:00:00 NR -20.4244 115.545 main 88 61 ______P___P___ -1 -20.9639 115.329 -19.8849 115.762 7 23 223
1929040S14125 1929 11 SI WA NOT_NAMED 1929-02-12 07:00:00 NR -21.0069 115.208 bom main 60 0 ______O___P___ -1 -21.3000 115.000 -20.0389 115.646 7 31 206
1929040S14125 1929 11 SI WA NOT_NAMED 1929-02-12 09:00:00 NR -21.8218 114.800 main 0 0 ______P___P___ -1 -22.2327 114.434 -20.3615 115.420 7 28 203
1929040S14125 1929 11 SI WA NOT_NAMED 1929-02-12 10:00:00 NR -22.2728 114.630 bom main 0 0 ______O___P___ -1 -22.7000 114.200 -20.5291 115.309 7 26 199
1929040S14125 1929 11 SI WA NOT_NAMED 1929-02-12 11:00:00 NR -22.6272 114.501 main 0 0 ______P___O___ -1 -23.0458 113.998 -20.7000 115.200 7 17 201
1929040S14125 1929 11 SI WA NOT_NAMED 1929-02-12 12:00:00 NR -22.8106 114.406 main 0 0 ______P___P___ -1 -23.3175 113.837 -20.8715 115.067 7 10 204
1929040S14125 1929 11 SI WA NOT_NAMED 1929-02-12 15:00:00 NR -23.2444 114.203 main 0 0 ______P___P___ -1 -23.7564 113.572 -21.4158 114.671 7 8 201
1929040S14125 1929 11 SI WA NOT_NAMED 1929-02-12 18:00:00 NR -23.5421 114.103 main 0 0 ______P___P___ -1 -23.7742 113.563 -21.9824 114.311 7 5 191
1929040S14125 1929 11 SI WA NOT_NAMED 1929-02-12 21:00:00 NR -23.7532 114.087 main 0 0 ______P___P___ -1 -23.5530 113.715 -22.5432 114.027 7 4 177
1929040S14125 1929 11 SI WA NOT_NAMED 1929-02-12 23:00:00 NR -23.8702 114.112 main 0 0 ______P___O___ -1 -23.3623 113.857 -22.9000 113.900 7 4 167
1929040S14125 1929 11 SI WA NOT_NAMED 1929-02-13 00:00:00 NR -23.9260 114.134 main 0 0 ______P___P___ -1 -23.2742 113.930 -23.0669 113.858 7 4 164
1929040S14125 1929 11 SI WA NOT_NAMED 1929-02-13 01:00:00 NR -23.9842 114.158 bom main 0 0 ______O___P___ -1 -23.2000 114.000 -23.2303 113.831 7 5 170
1929040S14125 1929 11 SI WA NOT_NAMED 1929-02-13 03:00:00 NR -24.1846 114.166 main 0 0 ______P___P___ -1 -23.3225 113.976 -23.5472 113.814 7 6 175
1929040S14125 1929 11 SI WA NOT_NAMED 1929-02-13 06:00:00 NR -24.4796 114.204 main 0 0 _____OP___P___ -1 -25.9000 114.800 99 9.90000 -23.5390 113.944 -23.9998 113.868 7 6 172
1929040S14125 1929 11 SI WA NOT_NAMED 1929-02-13 09:00:00 NR -24.7665 114.267 main 0 0 _____PP___P___ -1 -26.0001 114.862 99 -23.7915 113.925 -24.4274 113.993 7 6 167
1929040S14125 1929 11 SI WA NOT_NAMED 1929-02-13 11:00:00 NR -24.9537 114.319 main 0 0 _____PP___O___ -1 -26.0668 114.904 99 -23.9781 113.922 -24.7000 114.100 7 6 166
1929040S14125 1929 11 SI WA NOT_NAMED 1929-02-13 12:00:00 NR -25.0465 114.343 main 0 0 _____PP___P___ -1 -26.1002 114.924 99 -24.0765 113.925 -24.8338 114.145 7 6 165
1929040S14125 1929 11 SI WA NOT_NAMED 1929-02-13 15:00:00 NR -25.3195 114.430 main 0 0 _____PP___P___ -1 -26.2002 114.987 99 -24.3905 113.949 -25.2183 114.314 7 6 162
1929040S14125 1929 11 SI WA NOT_NAMED 1929-02-13 18:00:00 NR -25.5881 114.538 main 0 0 _____PP___P___ -1 -26.3002 115.049 99 -24.7298 114.006 -25.5870 114.519 7 6 159
1929040S14125 1929 11 SI WA NOT_NAMED 1929-02-13 21:00:00 NR -25.8566 114.664 main 0 0 _____PP___P___ -1 -26.4002 115.112 99 -25.0909 114.101 -25.9522 114.745 7 6 156
1929040S14125 1929 11 SI WA NOT_NAMED 1929-02-13 23:00:00 NR -26.0378 114.757 main 0 0 _____PP___O___ -1 -26.4669 115.153 99 -25.3419 114.189 -26.2000 114.900 7 6 155
1929040S14125 1929 11 SI WA NOT_NAMED 1929-02-14 00:00:00 NR -26.1324 114.804 main 0 0 _____PP___P___ -1 -26.5002 115.174 99 -25.4702 114.242 -26.3349 114.970 7 5 162
1929040S14125 1929 11 SI WA NOT_NAMED 1929-02-14 01:00:00 NR -26.1928 114.820 bom main 0 0 _____PO___P___ -1 -26.5335 115.195 99 -25.6000 114.300 -26.4714 115.042 7 5 161
1929040S14125 1929 11 SI WA NOT_NAMED 1929-02-14 03:00:00 NR -26.3741 114.899 main 0 0 _____PP___P___ -1 -26.6001 115.237 99 -25.8641 114.434 -26.7470 115.187 7 7 156
1929040S14125 1929 11 SI WA NOT_NAMED 1929-02-14 06:00:00 NR -26.7127 115.073 main 0 0 _____OP___P___ -1 -26.7000 115.300 99 9.90000 -26.2701 114.678 -27.1584 115.411 7 8 154
1929040S14125 1929 11 SI WA NOT_NAMED 1929-02-14 09:00:00 NR -27.1199 115.304 main 0 0 ______P___P___ -1 99 -26.6863 114.967 -27.5535 115.642 7 9 151
1929040S14125 1929 11 SI WA NOT_NAMED 1929-02-14 11:00:00 NR -27.3843 115.490 main 0 0 ______P___O___ -1 99 -26.9686 115.181 -27.8000 115.800 7 9 148
1929040S14125 1929 11 SI WA NOT_NAMED 1929-02-14 12:00:00 NR -27.5138 115.587 main 0 0 ______P___P___ -1 99 -27.1109 115.294 -27.9167 115.880 7 9 145
1929040S14125 1929 11 SI WA NOT_NAMED 1929-02-14 15:00:00 NR -27.8920 115.889 main 0 0 ______P___P___ -1 99 -27.5418 115.653 -28.2423 116.125 7 9 143
1929040S14125 1929 11 SI WA NOT_NAMED 1929-02-14 18:00:00 NR -28.2181 116.183 main 0 0 ______P___P___ -1 99 -27.9772 116.038 -28.5394 116.376 7 9 141
1929040S14125 1929 11 SI WA NOT_NAMED 1929-02-14 21:00:00 NR -28.5497 116.505 main 0 0 ______P___P___ -1 99 -28.4151 116.442 -28.8187 116.629 7 9 139
1929040S14125 1929 11 SI WA NOT_NAMED 1929-02-14 23:00:00 NR -28.7808 116.740 main 0 0 ______P___O___ -1 99 -28.7077 116.719 -29.0000 116.800 7 9 134
1929040S14125 1929 11 SI WA NOT_NAMED 1929-02-15 00:00:00 NR -28.8539 116.859 main 0 0 ______P_______ -1 99 -28.8539 116.859 7 10 134
1929040S14125 1929 11 SI WA NOT_NAMED 1929-02-15 01:00:00 NR -29.0000 117.000 bom main 0 ______O_______ -1 99 -29.0000 117.000 7 11 139

About IBTrACS Database

This database is a web-friendly format of International Best Track Archive for Climate Stewardship (IBTrACS), a global best track data archive curated by NOAA dating back to 1842.

Updated: 2021-10-19